sensor_id;sensor_type;location;lat;lon;timestamp;pressure;altitude;pressure_sealevel;temperature;humidity
48216;BME280;34005;48.844;10.098;2023-07-29T00:02:22;96370.63;;;17.59;87.91
48216;BME280;34005;48.844;10.098;2023-07-29T00:04:50;96367.41;;;17.57;87.79
48216;BME280;34005;48.844;10.098;2023-07-29T00:07:17;96362.13;;;17.57;87.56
48216;BME280;34005;48.844;10.098;2023-07-29T00:09:45;96364.56;;;17.59;87.29
48216;BME280;34005;48.844;10.098;2023-07-29T00:12:12;96368.56;;;17.61;87.38
48216;BME280;34005;48.844;10.098;2023-07-29T00:14:40;96355.38;;;17.61;87.14
48216;BME280;34005;48.844;10.098;2023-07-29T00:17:08;96360.41;;;17.63;87.32
48216;BME280;34005;48.844;10.098;2023-07-29T00:19:36;96364.91;;;17.62;86.79
48216;BME280;34005;48.844;10.098;2023-07-29T00:22:04;96366.50;;;17.63;86.81
48216;BME280;34005;48.844;10.098;2023-07-29T00:24:34;96353.31;;;17.63;87.08
48216;BME280;34005;48.844;10.098;2023-07-29T00:27:02;96350.66;;;17.63;87.08
48216;BME280;34005;48.844;10.098;2023-07-29T00:29:30;96341.16;;;17.62;87.20
48216;BME280;34005;48.844;10.098;2023-07-29T00:31:58;96338.97;;;17.59;87.09
48216;BME280;34005;48.844;10.098;2023-07-29T00:34:25;96337.59;;;17.57;86.97
48216;BME280;34005;48.844;10.098;2023-07-29T00:36:54;96337.50;;;17.52;87.13
48216;BME280;34005;48.844;10.098;2023-07-29T00:39:22;96337.16;;;17.48;86.96
48216;BME280;34005;48.844;10.098;2023-07-29T00:41:50;96355.25;;;17.44;87.12
48216;BME280;34005;48.844;10.098;2023-07-29T00:44:17;96358.38;;;17.41;87.61
48216;BME280;34005;48.844;10.098;2023-07-29T00:46:45;96358.16;;;17.43;88.13
48216;BME280;34005;48.844;10.098;2023-07-29T00:49:13;96350.25;;;17.43;87.66
48216;BME280;34005;48.844;10.098;2023-07-29T00:51:41;96353.91;;;17.42;87.32
48216;BME280;34005;48.844;10.098;2023-07-29T00:54:10;96349.66;;;17.41;87.22
48216;BME280;34005;48.844;10.098;2023-07-29T00:56:38;96349.91;;;17.39;87.23
48216;BME280;34005;48.844;10.098;2023-07-29T00:59:06;96342.47;;;17.36;87.18
48216;BME280;34005;48.844;10.098;2023-07-29T01:01:33;96330.50;;;17.34;87.18
48216;BME280;34005;48.844;10.098;2023-07-29T01:04:01;96330.50;;;17.34;87.07
48216;BME280;34005;48.844;10.098;2023-07-29T01:06:34;96338.91;;;17.30;87.09
48216;BME280;34005;48.844;10.098;2023-07-29T01:09:14;96341.75;;;17.29;87.06
48216;BME280;34005;48.844;10.098;2023-07-29T01:11:58;96332.25;;;17.28;87.04
48216;BME280;34005;48.844;10.098;2023-07-29T01:14:34;96329.84;;;17.26;86.87
48216;BME280;34005;48.844;10.098;2023-07-29T01:17:05;96329.84;;;17.26;86.59
48216;BME280;34005;48.844;10.098;2023-07-29T01:19:48;96319.78;;;17.23;86.58
48216;BME280;34005;48.844;10.098;2023-07-29T01:22:21;96317.84;;;17.19;86.67
48216;BME280;34005;48.844;10.098;2023-07-29T01:24:50;96319.88;;;17.17;87.06
48216;BME280;34005;48.844;10.098;2023-07-29T01:27:17;96320.13;;;17.15;87.14
48216;BME280;34005;48.844;10.098;2023-07-29T01:29:45;96317.47;;;17.15;87.48
48216;BME280;34005;48.844;10.098;2023-07-29T01:32:17;96304.06;;;17.17;87.29
48216;BME280;34005;48.844;10.098;2023-07-29T01:34:50;96293.28;;;17.18;87.30
48216;BME280;34005;48.844;10.098;2023-07-29T01:37:22;96297.53;;;17.19;87.21
48216;BME280;34005;48.844;10.098;2023-07-29T01:39:56;96293.06;;;17.20;87.17
48216;BME280;34005;48.844;10.098;2023-07-29T01:42:25;96290.66;;;17.18;86.91
48216;BME280;34005;48.844;10.098;2023-07-29T01:44:56;96290.66;;;17.18;87.34
48216;BME280;34005;48.844;10.098;2023-07-29T01:47:23;96301.19;;;17.18;87.32
48216;BME280;34005;48.844;10.098;2023-07-29T01:49:51;96300.41;;;17.18;87.30
48216;BME280;34005;48.844;10.098;2023-07-29T01:52:19;96301.44;;;17.17;87.49
48216;BME280;34005;48.844;10.098;2023-07-29T01:54:46;96299.03;;;17.15;87.34
48216;BME280;34005;48.844;10.098;2023-07-29T01:57:15;96300.03;;;17.14;87.32
48216;BME280;34005;48.844;10.098;2023-07-29T01:59:43;96285.84;;;17.15;87.30
48216;BME280;34005;48.844;10.098;2023-07-29T02:02:11;96295.59;;;17.15;87.26
48216;BME280;34005;48.844;10.098;2023-07-29T02:04:38;96284.22;;;17.14;87.53
48216;BME280;34005;48.844;10.098;2023-07-29T02:07:06;96288.47;;;17.15;87.46
48216;BME280;34005;48.844;10.098;2023-07-29T02:09:34;96281.38;;;17.16;87.46
48216;BME280;34005;48.844;10.098;2023-07-29T02:12:02;96276.91;;;17.16;87.44
48216;BME280;34005;48.844;10.098;2023-07-29T02:14:31;96287.44;;;17.16;87.56
48216;BME280;34005;48.844;10.098;2023-07-29T02:16:58;96283.00;;;17.17;87.40
48216;BME280;34005;48.844;10.098;2023-07-29T02:19:26;96284.81;;;17.16;87.52
48216;BME280;34005;48.844;10.098;2023-07-29T02:21:54;96287.44;;;17.16;87.40
48216;BME280;34005;48.844;10.098;2023-07-29T02:24:21;96285.38;;;17.18;87.52
48216;BME280;34005;48.844;10.098;2023-07-29T02:26:49;96298.34;;;17.20;87.60
48216;BME280;34005;48.844;10.098;2023-07-29T02:29:17;96290.19;;;17.21;87.41
48216;BME280;34005;48.844;10.098;2023-07-29T02:31:46;96297.06;;;17.22;87.53
48216;BME280;34005;48.844;10.098;2023-07-29T02:34:14;96301.91;;;17.25;87.51
48216;BME280;34005;48.844;10.098;2023-07-29T02:36:41;96299.84;;;17.27;87.64
48216;BME280;34005;48.844;10.098;2023-07-29T02:39:09;96298.56;;;17.30;87.63
48216;BME280;34005;48.844;10.098;2023-07-29T02:41:36;96293.38;;;17.35;87.55
48216;BME280;34005;48.844;10.098;2023-07-29T02:44:05;96290.06;;;17.40;87.37
48216;BME280;34005;48.844;10.098;2023-07-29T02:46:33;96291.75;;;17.46;86.77
48216;BME280;34005;48.844;10.098;2023-07-29T02:49:03;96283.38;;;17.49;86.94
48216;BME280;34005;48.844;10.098;2023-07-29T02:51:30;96285.56;;;17.52;86.88
48216;BME280;34005;48.844;10.098;2023-07-29T02:53:58;96278.22;;;17.54;86.70
48216;BME280;34005;48.844;10.098;2023-07-29T02:56:26;96279.59;;;17.57;86.76
48216;BME280;34005;48.844;10.098;2023-07-29T02:58:54;96276.72;;;17.58;86.64
48216;BME280;34005;48.844;10.098;2023-07-29T03:01:22;96273.03;;;17.59;86.61
48216;BME280;34005;48.844;10.098;2023-07-29T03:03:51;96263.53;;;17.58;86.36
48216;BME280;34005;48.844;10.098;2023-07-29T03:06:20;96262.97;;;17.56;86.38
48216;BME280;34005;48.844;10.098;2023-07-29T03:08:48;96268.47;;;17.55;86.47
48216;BME280;34005;48.844;10.098;2023-07-29T03:11:16;96268.69;;;17.53;86.53
48216;BME280;34005;48.844;10.098;2023-07-29T03:13:44;96263.41;;;17.53;86.47
48216;BME280;34005;48.844;10.098;2023-07-29T03:16:13;96262.84;;;17.51;86.44
48216;BME280;34005;48.844;10.098;2023-07-29T03:18:42;96258.63;;;17.50;86.59
48216;BME280;34005;48.844;10.098;2023-07-29T03:21:10;96261.47;;;17.48;86.52
48216;BME280;34005;48.844;10.098;2023-07-29T03:23:39;96260.91;;;17.46;86.62
48216;BME280;34005;48.844;10.098;2023-07-29T03:26:07;96255.91;;;17.45;86.70
48216;BME280;34005;48.844;10.098;2023-07-29T03:28:38;96247.63;;;17.41;86.66
48216;BME280;34005;48.844;10.098;2023-07-29T03:31:06;96247.28;;;17.38;86.71
48216;BME280;34005;48.844;10.098;2023-07-29T03:33:34;96244.09;;;17.36;86.70
48216;BME280;34005;48.844;10.098;2023-07-29T03:36:02;96253.03;;;17.35;87.02
48216;BME280;34005;48.844;10.098;2023-07-29T03:38:30;96247.19;;;17.33;87.00
48216;BME280;34005;48.844;10.098;2023-07-29T03:41:00;96236.88;;;17.31;86.90
48216;BME280;34005;48.844;10.098;2023-07-29T03:43:29;96236.09;;;17.30;86.95
48216;BME280;34005;48.844;10.098;2023-07-29T03:45:56;96234.50;;;17.29;87.04
48216;BME280;34005;48.844;10.098;2023-07-29T03:48:24;96226.81;;;17.28;87.15
48216;BME280;34005;48.844;10.098;2023-07-29T03:50:52;96221.19;;;17.24;87.22
48216;BME280;34005;48.844;10.098;2023-07-29T03:53:19;96219.59;;;17.23;87.28
48216;BME280;34005;48.844;10.098;2023-07-29T03:55:47;96221.19;;;17.24;87.63
48216;BME280;34005;48.844;10.098;2023-07-29T03:58:17;96214.09;;;17.25;87.46
48216;BME280;34005;48.844;10.098;2023-07-29T04:00:45;96214.91;;;17.25;87.84
48216;BME280;34005;48.844;10.098;2023-07-29T04:03:13;96215.47;;;17.27;87.69
48216;BME280;34005;48.844;10.098;2023-07-29T04:05:40;96220.75;;;17.27;87.88
48216;BME280;34005;48.844;10.098;2023-07-29T04:08:08;96227.59;;;17.28;87.56
48216;BME280;34005;48.844;10.098;2023-07-29T04:10:36;96224.19;;;17.28;87.52
48216;BME280;34005;48.844;10.098;2023-07-29T04:13:04;96230.03;;;17.30;87.56
48216;BME280;34005;48.844;10.098;2023-07-29T04:15:33;96221.84;;;17.32;87.47
48216;BME280;34005;48.844;10.098;2023-07-29T04:18:01;96215.78;;;17.31;87.50
48216;BME280;34005;48.844;10.098;2023-07-29T04:20:28;96221.84;;;17.32;87.60
48216;BME280;34005;48.844;10.098;2023-07-29T04:22:56;96223.00;;;17.36;87.66
48216;BME280;34005;48.844;10.098;2023-07-29T04:25:24;96208.78;;;17.37;87.29
48216;BME280;34005;48.844;10.098;2023-07-29T04:27:51;96214.63;;;17.39;87.32
48216;BME280;34005;48.844;10.098;2023-07-29T04:30:19;96213.38;;;17.41;87.16
48216;BME280;34005;48.844;10.098;2023-07-29T04:32:48;96216.34;;;17.45;87.07
48216;BME280;34005;48.844;10.098;2023-07-29T04:35:16;96217.94;;;17.46;86.73
48216;BME280;34005;48.844;10.098;2023-07-29T04:37:44;96221.69;;;17.50;86.84
48216;BME280;34005;48.844;10.098;2023-07-29T04:40:14;96224.13;;;17.52;86.59
48216;BME280;34005;48.844;10.098;2023-07-29T04:42:42;96222.59;;;17.56;86.15
48216;BME280;34005;48.844;10.098;2023-07-29T04:45:10;96223.16;;;17.58;86.08
48216;BME280;34005;48.844;10.098;2023-07-29T04:47:38;96209.16;;;17.57;86.00
48216;BME280;34005;48.844;10.098;2023-07-29T04:50:08;96222.94;;;17.59;85.95
48216;BME280;34005;48.844;10.098;2023-07-29T04:52:35;96214.78;;;17.61;86.07
48216;BME280;34005;48.844;10.098;2023-07-29T04:55:04;96220.38;;;17.64;86.02
48216;BME280;34005;48.844;10.098;2023-07-29T04:57:31;96222.00;;;17.65;85.80
48216;BME280;34005;48.844;10.098;2023-07-29T04:59:59;96220.16;;;17.66;85.50
48216;BME280;34005;48.844;10.098;2023-07-29T05:02:27;96222.22;;;17.64;85.61
48216;BME280;34005;48.844;10.098;2023-07-29T05:04:54;96211.91;;;17.62;85.56
48216;BME280;34005;48.844;10.098;2023-07-29T05:07:23;96211.91;;;17.62;85.61
48216;BME280;34005;48.844;10.098;2023-07-29T05:09:51;96217.19;;;17.62;85.83
48216;BME280;34005;48.844;10.098;2023-07-29T05:12:19;96219.00;;;17.62;85.73
48216;BME280;34005;48.844;10.098;2023-07-29T05:14:46;96216.38;;;17.62;85.91
48216;BME280;34005;48.844;10.098;2023-07-29T05:17:14;96213.50;;;17.63;85.84
48216;BME280;34005;48.844;10.098;2023-07-29T05:19:42;96211.78;;;17.69;85.62
48216;BME280;34005;48.844;10.098;2023-07-29T05:22:09;96209.22;;;17.74;85.68
48216;BME280;34005;48.844;10.098;2023-07-29T05:24:39;96208.50;;;17.79;85.53
48216;BME280;34005;48.844;10.098;2023-07-29T05:27:06;96205.97;;;17.84;85.18
48216;BME280;34005;48.844;10.098;2023-07-29T05:29:35;96215.03;;;17.88;85.13
48216;BME280;34005;48.844;10.098;2023-07-29T05:32:03;96216.16;;;17.92;84.58
48216;BME280;34005;48.844;10.098;2023-07-29T05:34:30;96221.28;;;17.99;84.35
48216;BME280;34005;48.844;10.098;2023-07-29T05:36:58;96214.28;;;18.04;84.16
48216;BME280;34005;48.844;10.098;2023-07-29T05:39:26;96240.50;;;18.11;84.33
48216;BME280;34005;48.844;10.098;2023-07-29T05:41:55;96254.56;;;18.17;85.37
48216;BME280;34005;48.844;10.098;2023-07-29T05:44:22;96257.78;;;18.19;84.68
48216;BME280;34005;48.844;10.098;2023-07-29T05:46:50;96252.84;;;18.22;84.51
48216;BME280;34005;48.844;10.098;2023-07-29T05:49:18;96251.56;;;18.25;84.72
48216;BME280;34005;48.844;10.098;2023-07-29T05:51:45;96265.31;;;18.27;84.90
48216;BME280;34005;48.844;10.098;2023-07-29T05:54:13;96282.28;;;18.31;85.85
48216;BME280;34005;48.844;10.098;2023-07-29T05:56:40;96287.09;;;18.34;86.50
48216;BME280;34005;48.844;10.098;2023-07-29T05:59:09;96299.25;;;18.35;86.86
48216;BME280;34005;48.844;10.098;2023-07-29T06:01:37;96303.50;;;18.36;87.56
48216;BME280;34005;48.844;10.098;2023-07-29T06:04:05;96312.22;;;18.37;87.88
48216;BME280;34005;48.844;10.098;2023-07-29T06:06:33;96305.09;;;18.37;87.36
48216;BME280;34005;48.844;10.098;2023-07-29T06:09:01;96282.63;;;18.35;87.21
48216;BME280;34005;48.844;10.098;2023-07-29T06:11:28;96271.25;;;18.34;87.62
48216;BME280;34005;48.844;10.098;2023-07-29T06:13:56;96271.25;;;18.34;87.93
48216;BME280;34005;48.844;10.098;2023-07-29T06:16:25;96265.16;;;18.33;88.16
48216;BME280;34005;48.844;10.098;2023-07-29T06:18:53;96270.66;;;18.32;88.44
48216;BME280;34005;48.844;10.098;2023-07-29T06:21:20;96274.13;;;18.32;89.03
48216;BME280;34005;48.844;10.098;2023-07-29T06:23:48;96270.44;;;18.33;89.52
48216;BME280;34005;48.844;10.098;2023-07-29T06:26:16;96260.69;;;18.34;89.74
48216;BME280;34005;48.844;10.098;2023-07-29T06:28:43;96250.59;;;18.31;89.36
48216;BME280;34005;48.844;10.098;2023-07-29T06:31:11;96256.38;;;18.28;89.67
48216;BME280;34005;48.844;10.098;2023-07-29T06:33:40;96246.28;;;18.25;89.42
48216;BME280;34005;48.844;10.098;2023-07-29T06:36:07;96242.50;;;18.21;89.33
48216;BME280;34005;48.844;10.098;2023-07-29T06:38:35;96241.94;;;18.19;89.25
48216;BME280;34005;48.844;10.098;2023-07-29T06:41:03;96246.66;;;18.17;89.47
48216;BME280;34005;48.844;10.098;2023-07-29T06:43:31;96247.16;;;18.14;89.80
48216;BME280;34005;48.844;10.098;2023-07-29T06:45:58;96251.38;;;18.15;90.04
48216;BME280;34005;48.844;10.098;2023-07-29T06:48:26;96246.91;;;18.15;90.04
48216;BME280;34005;48.844;10.098;2023-07-29T06:50:55;96249.88;;;18.19;90.52
48216;BME280;34005;48.844;10.098;2023-07-29T06:53:27;96236.75;;;18.24;90.61
48216;BME280;34005;48.844;10.098;2023-07-29T06:55:54;96245.81;;;18.28;90.51
48216;BME280;34005;48.844;10.098;2023-07-29T06:58:22;96248.53;;;18.33;90.53
48216;BME280;34005;48.844;10.098;2023-07-29T07:00:50;96244.66;;;18.41;90.61
48216;BME280;34005;48.844;10.098;2023-07-29T07:03:20;96237.66;;;18.46;90.05
48216;BME280;34005;48.844;10.098;2023-07-29T07:05:48;96236.13;;;18.50;89.72
48216;BME280;34005;48.844;10.098;2023-07-29T07:08:18;96240.44;;;18.57;88.91
48216;BME280;34005;48.844;10.098;2023-07-29T07:10:46;96246.91;;;18.66;89.46
48216;BME280;34005;48.844;10.098;2023-07-29T07:13:14;96248.09;;;18.75;89.61
48216;BME280;34005;48.844;10.098;2023-07-29T07:15:42;96242.44;;;18.83;88.11
48216;BME280;34005;48.844;10.098;2023-07-29T07:18:09;96234.13;;;18.91;88.12
48216;BME280;34005;48.844;10.098;2023-07-29T07:20:37;96230.75;;;18.96;87.05
48216;BME280;34005;48.844;10.098;2023-07-29T07:23:04;96236.63;;;19.03;86.47
48216;BME280;34005;48.844;10.098;2023-07-29T07:25:36;96229.59;;;19.09;85.92
48216;BME280;34005;48.844;10.098;2023-07-29T07:28:04;96232.06;;;19.16;86.09
48216;BME280;34005;48.844;10.098;2023-07-29T07:30:31;96233.69;;;19.22;85.87
48216;BME280;34005;48.844;10.098;2023-07-29T07:32:59;96232.44;;;19.24;84.83
48216;BME280;34005;48.844;10.098;2023-07-29T07:35:27;96228.16;;;19.23;84.60
48216;BME280;34005;48.844;10.098;2023-07-29T07:37:54;96232.72;;;19.28;84.94
48216;BME280;34005;48.844;10.098;2023-07-29T07:40:22;96236.72;;;19.30;84.50
48216;BME280;34005;48.844;10.098;2023-07-29T07:42:51;96244.97;;;19.34;84.31
48216;BME280;34005;48.844;10.098;2023-07-29T07:45:19;96249.22;;;19.35;83.89
48216;BME280;34005;48.844;10.098;2023-07-29T07:47:47;96254.25;;;19.37;83.96
48216;BME280;34005;48.844;10.098;2023-07-29T07:50:14;96256.09;;;19.36;84.45
48216;BME280;34005;48.844;10.098;2023-07-29T07:52:43;96270.66;;;19.39;85.02
48216;BME280;34005;48.844;10.098;2023-07-29T07:55:10;96282.88;;;19.40;85.93
48216;BME280;34005;48.844;10.098;2023-07-29T07:57:38;96300.31;;;19.41;86.23
48216;BME280;34005;48.844;10.098;2023-07-29T08:00:08;96312.53;;;19.42;87.21
48216;BME280;34005;48.844;10.098;2023-07-29T08:02:37;96322.28;;;19.41;87.64
48216;BME280;34005;48.844;10.098;2023-07-29T08:05:05;96325.19;;;19.40;87.86
48216;BME280;34005;48.844;10.098;2023-07-29T08:07:33;96318.28;;;19.39;88.60
48216;BME280;34005;48.844;10.098;2023-07-29T08:10:00;96321.44;;;19.35;88.22
48216;BME280;34005;48.844;10.098;2023-07-29T08:12:28;96318.47;;;19.32;87.23
48216;BME280;34005;48.844;10.098;2023-07-29T08:14:56;96316.53;;;19.27;87.28
48216;BME280;34005;48.844;10.098;2023-07-29T08:17:25;96318.06;;;19.23;87.62
48216;BME280;34005;48.844;10.098;2023-07-29T08:19:52;96312.22;;;19.21;88.39
48216;BME280;34005;48.844;10.098;2023-07-29T08:22:20;96301.34;;;19.18;87.47
48216;BME280;34005;48.844;10.098;2023-07-29T08:24:48;96301.81;;;19.14;87.85
48216;BME280;34005;48.844;10.098;2023-07-29T08:27:15;96297.81;;;19.12;87.07
48216;BME280;34005;48.844;10.098;2023-07-29T08:29:43;96288.53;;;19.09;86.03
48216;BME280;34005;48.844;10.098;2023-07-29T08:32:11;96296.22;;;19.11;86.22
48216;BME280;34005;48.844;10.098;2023-07-29T08:34:40;96306.31;;;19.14;87.00
48216;BME280;34005;48.844;10.098;2023-07-29T08:37:07;96290.78;;;19.18;86.75
48216;BME280;34005;48.844;10.098;2023-07-29T08:39:35;96299.00;;;19.21;85.98
48216;BME280;34005;48.844;10.098;2023-07-29T08:42:04;96290.59;;;19.24;85.64
48216;BME280;34005;48.844;10.098;2023-07-29T08:44:40;96289.59;;;19.30;85.08
48216;BME280;34005;48.844;10.098;2023-07-29T08:47:08;96278.59;;;19.39;85.02
48216;BME280;34005;48.844;10.098;2023-07-29T08:49:36;96278.41;;;19.45;83.64
48216;BME280;34005;48.844;10.098;2023-07-29T08:52:07;96274.78;;;19.51;81.22
48216;BME280;34005;48.844;10.098;2023-07-29T08:54:35;96273.81;;;19.58;81.36
48216;BME280;34005;48.844;10.098;2023-07-29T08:57:03;96284.53;;;19.68;82.52
48216;BME280;34005;48.844;10.098;2023-07-29T08:59:31;96288.91;;;19.79;82.95
48216;BME280;34005;48.844;10.098;2023-07-29T09:02:00;96292.16;;;19.86;82.34
48216;BME280;34005;48.844;10.098;2023-07-29T09:04:28;96299.34;;;19.91;82.76
48216;BME280;34005;48.844;10.098;2023-07-29T09:06:56;96302.56;;;19.93;81.53
48216;BME280;34005;48.844;10.098;2023-07-29T09:09:25;96305.75;;;19.95;82.17
48216;BME280;34005;48.844;10.098;2023-07-29T09:11:53;96294.97;;;20.02;82.32
48216;BME280;34005;48.844;10.098;2023-07-29T09:14:21;96294.34;;;20.16;82.60
48216;BME280;34005;48.844;10.098;2023-07-29T09:16:48;96289.47;;;20.35;82.21
48216;BME280;34005;48.844;10.098;2023-07-29T09:19:16;96290.44;;;20.56;80.67
48216;BME280;34005;48.844;10.098;2023-07-29T09:21:47;96302.03;;;20.77;79.95
48216;BME280;34005;48.844;10.098;2023-07-29T09:24:16;96295.78;;;20.94;79.68
48216;BME280;34005;48.844;10.098;2023-07-29T09:26:50;96307.25;;;21.05;77.30
48216;BME280;34005;48.844;10.098;2023-07-29T09:29:22;96301.78;;;21.22;77.19
48216;BME280;34005;48.844;10.098;2023-07-29T09:31:50;96303.47;;;21.38;76.72
48216;BME280;34005;48.844;10.098;2023-07-29T09:34:17;96292.16;;;21.53;77.05
48216;BME280;34005;48.844;10.098;2023-07-29T09:36:45;96294.56;;;21.59;75.98
48216;BME280;34005;48.844;10.098;2023-07-29T09:39:13;96288.53;;;21.69;75.47
48216;BME280;34005;48.844;10.098;2023-07-29T09:41:40;96287.50;;;21.80;75.55
48216;BME280;34005;48.844;10.098;2023-07-29T09:44:10;96287.00;;;21.94;74.99
48216;BME280;34005;48.844;10.098;2023-07-29T09:46:38;96282.75;;;21.98;74.24
48216;BME280;34005;48.844;10.098;2023-07-29T09:49:07;96291.81;;;22.07;74.19
48216;BME280;34005;48.844;10.098;2023-07-29T09:51:37;96282.78;;;22.18;73.69
48216;BME280;34005;48.844;10.098;2023-07-29T09:54:05;96280.72;;;22.31;72.56
48216;BME280;34005;48.844;10.098;2023-07-29T09:56:33;96274.34;;;22.42;72.41
48216;BME280;34005;48.844;10.098;2023-07-29T09:59:01;96275.16;;;22.53;71.08
48216;BME280;34005;48.844;10.098;2023-07-29T10:01:32;96267.97;;;22.63;71.66
48216;BME280;34005;48.844;10.098;2023-07-29T10:04:03;96269.03;;;22.73;71.10
48216;BME280;34005;48.844;10.098;2023-07-29T10:06:32;96274.06;;;22.79;71.68
48216;BME280;34005;48.844;10.098;2023-07-29T10:09:03;96272.47;;;22.89;70.61
48216;BME280;34005;48.844;10.098;2023-07-29T10:11:32;96269.53;;;22.95;69.84
48216;BME280;34005;48.844;10.098;2023-07-29T10:14:01;96272.47;;;23.04;69.98
48216;BME280;34005;48.844;10.098;2023-07-29T10:16:36;96276.97;;;23.19;70.27
48216;BME280;34005;48.844;10.098;2023-07-29T10:19:04;96262.03;;;23.28;69.45
48216;BME280;34005;48.844;10.098;2023-07-29T10:21:33;96248.72;;;23.33;68.04
48216;BME280;34005;48.844;10.098;2023-07-29T10:24:07;96242.81;;;23.41;69.08
48216;BME280;34005;48.844;10.098;2023-07-29T10:26:38;96255.56;;;23.50;66.95
48216;BME280;34005;48.844;10.098;2023-07-29T10:29:12;96264.34;;;23.55;68.00
48216;BME280;34005;48.844;10.098;2023-07-29T10:31:42;96269.63;;;23.60;67.17
48216;BME280;34005;48.844;10.098;2023-07-29T10:34:10;96261.88;;;23.69;66.61
48216;BME280;34005;48.844;10.098;2023-07-29T10:36:39;96266.09;;;23.85;67.86
48216;BME280;34005;48.844;10.098;2023-07-29T10:39:08;96272.13;;;23.96;64.76
48216;BME280;34005;48.844;10.098;2023-07-29T10:41:57;96277.41;;;24.06;64.20
48216;BME280;34005;48.844;10.098;2023-07-29T10:44:50;96271.25;;;24.11;64.43
48216;BME280;34005;48.844;10.098;2023-07-29T10:47:23;96272.03;;;24.12;64.05
48216;BME280;34005;48.844;10.098;2023-07-29T10:49:51;96259.53;;;24.12;63.33
48216;BME280;34005;48.844;10.098;2023-07-29T10:52:46;96265.44;;;24.04;62.38
48216;BME280;34005;48.844;10.098;2023-07-29T10:55:27;96262.78;;;24.04;64.10
48216;BME280;34005;48.844;10.098;2023-07-29T10:58:06;96258.25;;;24.04;63.77
48216;BME280;34005;48.844;10.098;2023-07-29T11:00:33;96246.28;;;24.02;62.31
48216;BME280;34005;48.844;10.098;2023-07-29T11:03:05;96240.91;;;24.07;62.91
48216;BME280;34005;48.844;10.098;2023-07-29T11:05:44;96251.03;;;24.10;64.06
48216;BME280;34005;48.844;10.098;2023-07-29T11:08:23;96248.38;;;24.10;63.43
48216;BME280;34005;48.844;10.098;2023-07-29T11:11:04;96262.47;;;24.11;63.50
48216;BME280;34005;48.844;10.098;2023-07-29T11:13:34;96275.78;;;24.11;62.12
48216;BME280;34005;48.844;10.098;2023-07-29T11:16:03;96295.25;;;24.11;61.40
48216;BME280;34005;48.844;10.098;2023-07-29T11:18:33;96287.63;;;23.94;59.16
48216;BME280;34005;48.844;10.098;2023-07-29T11:21:03;96285.34;;;23.57;61.96
48216;BME280;34005;48.844;10.098;2023-07-29T11:23:32;96311.84;;;23.07;63.43
48216;BME280;34005;48.844;10.098;2023-07-29T11:26:00;96296.16;;;22.54;65.05
48216;BME280;34005;48.844;10.098;2023-07-29T11:28:29;96311.47;;;22.11;65.87
48216;BME280;34005;48.844;10.098;2023-07-29T11:30:57;96316.41;;;21.77;66.08
48216;BME280;34005;48.844;10.098;2023-07-29T11:33:26;96306.50;;;21.52;68.01
48216;BME280;34005;48.844;10.098;2023-07-29T11:35:56;96320.69;;;21.35;68.73
48216;BME280;34005;48.844;10.098;2023-07-29T11:38:24;96316.41;;;21.24;69.73
48216;BME280;34005;48.844;10.098;2023-07-29T11:40:56;96319.03;;;21.19;70.41
48216;BME280;34005;48.844;10.098;2023-07-29T11:43:23;96327.00;;;21.19;70.38
48216;BME280;34005;48.844;10.098;2023-07-29T11:45:51;96324.34;;;21.19;70.92
48216;BME280;34005;48.844;10.098;2023-07-29T11:48:26;96313.72;;;21.19;70.61
48216;BME280;34005;48.844;10.098;2023-07-29T11:50:55;96308.47;;;21.29;71.49
48216;BME280;34005;48.844;10.098;2023-07-29T11:53:26;96318.94;;;21.46;71.27
48216;BME280;34005;48.844;10.098;2023-07-29T11:55:55;96323.50;;;21.56;70.51
48216;BME280;34005;48.844;10.098;2023-07-29T11:58:23;96311.06;;;21.67;70.01
48216;BME280;34005;48.844;10.098;2023-07-29T12:00:51;96301.03;;;21.79;70.97
48216;BME280;34005;48.844;10.098;2023-07-29T12:03:19;96302.41;;;21.92;69.77
48216;BME280;34005;48.844;10.098;2023-07-29T12:05:48;96303.75;;;22.05;70.82
48216;BME280;34005;48.844;10.098;2023-07-29T12:08:17;96302.97;;;22.14;69.05
48216;BME280;34005;48.844;10.098;2023-07-29T12:10:45;96291.31;;;22.20;69.65
48216;BME280;34005;48.844;10.098;2023-07-29T12:13:12;96286.78;;;22.21;66.95
48216;BME280;34005;48.844;10.098;2023-07-29T12:15:40;96278.81;;;22.21;67.45
48216;BME280;34005;48.844;10.098;2023-07-29T12:18:08;96276.75;;;22.28;69.73
48216;BME280;34005;48.844;10.098;2023-07-29T12:20:36;96255.75;;;22.42;69.23
48216;BME280;34005;48.844;10.098;2023-07-29T12:23:04;96254.41;;;22.50;68.29
48216;BME280;34005;48.844;10.098;2023-07-29T12:25:34;96266.38;;;22.57;69.90
48216;BME280;34005;48.844;10.098;2023-07-29T12:28:03;96268.75;;;22.64;69.10
48216;BME280;34005;48.844;10.098;2023-07-29T12:30:31;96262.66;;;22.69;68.37
48216;BME280;34005;48.844;10.098;2023-07-29T12:32:59;96259.44;;;22.72;68.56
48216;BME280;34005;48.844;10.098;2023-07-29T12:35:35;96260.00;;;22.79;68.19
48216;BME280;34005;48.844;10.098;2023-07-29T12:38:02;96246.69;;;22.84;67.58
48216;BME280;34005;48.844;10.098;2023-07-29T12:40:30;96243.22;;;22.83;68.44
48216;BME280;34005;48.844;10.098;2023-07-29T12:42:59;96241.63;;;22.82;68.19
48216;BME280;34005;48.844;10.098;2023-07-29T12:45:35;96254.13;;;22.82;69.45
48216;BME280;34005;48.844;10.098;2023-07-29T12:48:06;96253.59;;;22.85;69.23
48216;BME280;34005;48.844;10.098;2023-07-29T12:50:33;96247.72;;;22.88;69.11
48216;BME280;34005;48.844;10.098;2023-07-29T12:53:01;96239.50;;;22.90;68.37
48216;BME280;34005;48.844;10.098;2023-07-29T12:55:28;96242.94;;;22.90;68.73
48216;BME280;34005;48.844;10.098;2023-07-29T12:57:56;96241.06;;;22.91;68.79
48216;BME280;34005;48.844;10.098;2023-07-29T13:00:26;96237.59;;;22.95;69.14